Oats, South Carolina
Current Conditions -  °F | °C
As of 3:53 PM on Wednesday 26 Nov 2014 (Local Time) from KFLO Reporting Station
Overcast Overcast  
Wind Chill: 52°   Ceiling: 3300
Heat Index: 52°   Visibility: 10mi
Dew Point: 45°   Wind: 5mph
Humidity: 77%   Direction: 310°NW
Pressure: 30.02"   Gusts: NA
Location:  34.1883°N, 80.0384°W
Report Text: KFLO 262053Z 31004KT 10SM SCT022 OVC033 11/07 A3002 RMK AO2 SLP163 T01110072 53014
Loading
Personal Weather Stations






























Interactive Weather Map New forecast layout! Learn more

10-Day Weather Forecast

Advertisements
Track Severe Weather on mobile